Time;durP1;ratioP1;P1;durP2;ratioP2;P2;SDS_P1;SDS_P2;PMS_P1;PMS_P2;Temp;Humidity;BMP_temperature;BMP_pressure;BME280_temperature;BME280_humidity;BME280_pressure;Samples;Min_cycle;Max_cycle;Signal;HPM_P1;HPM_P2
2022/01/21 00:00:12;;;;;;;3.33;1.80;;;3.00;1.00;;;;;;5074999;28;20278;-75
2022/01/21 00:02:38;;;;;;;2.70;1.52;;;2.90;1.00;;;;;;5061910;28;20183;-75
2022/01/21 00:05:05;;;;;;;7.15;2.05;;;2.80;1.00;;;;;;5061669;28;20556;-75
2022/01/21 00:07:31;;;;;;;4.15;1.92;;;;;;;;;;5061434;28;20183;-75
2022/01/21 00:09:57;;;;;;;3.27;1.43;;;;;;;;;;5075485;28;20605;-75
2022/01/21 00:12:23;;;;;;;3.87;1.57;;;2.80;1.00;;;;;;5054613;28;20481;-75
2022/01/21 00:14:48;;;;;;;5.72;1.92;;;2.80;1.00;;;;;;5065582;28;20523;-75
2022/01/21 00:17:16;;;;;;;2.50;1.80;;;2.80;1.00;;;;;;5058869;28;20678;-75
2022/01/21 00:19:45;;;;;;;3.08;1.85;;;;;;;;;;5067959;28;20178;-75
2022/01/21 00:30:27;;;;;;;10.52;3.13;;;2.80;1.00;;;;;;5054838;28;20214;-75
2022/01/21 00:32:53;;;;;;;6.37;2.63;;;2.80;1.00;;;;;;5068853;28;20175;-75
2022/01/21 00:35:19;;;;;;;8.27;3.17;;;2.70;1.00;;;;;;5068985;28;20179;-75
2022/01/21 00:37:46;;;;;;;6.68;1.90;;;2.70;1.00;;;;;;5061050;28;20171;-75
2022/01/21 00:40:16;;;;;;;12.13;2.00;;;2.70;1.00;;;;;;5064965;28;20543;-75
2022/01/21 00:45:13;;;;;;;3.17;2.37;;;2.60;1.00;;;;;;5065763;28;20206;-75
2022/01/21 00:47:39;;;;;;;3.95;1.65;;;2.50;1.00;;;;;;5060853;28;20438;-75
2022/01/21 00:50:06;;;;;;;10.38;2.70;;;2.50;1.00;;;;;;5066540;28;20214;-75
2022/01/21 00:52:32;;;;;;;5.50;1.67;;;2.40;1.00;;;;;;5069442;28;20218;-75
2022/01/21 00:54:57;;;;;;;8.67;2.20;;;2.40;1.00;;;;;;5067110;28;20210;-75
2022/01/21 00:57:23;;;;;;;6.40;2.50;;;2.30;1.00;;;;;;5059575;28;20195;-75
2022/01/21 00:59:48;;;;;;;2.40;2.20;;;2.20;1.00;;;;;;5057657;28;20229;-75
2022/01/21 01:02:14;;;;;;;3.67;1.90;;;;;;;;;;5070373;28;20186;-75
2022/01/21 01:04:40;;;;;;;5.65;2.40;;;2.10;1.00;;;;;;5073964;28;20171;-76
2022/01/21 01:07:06;;;;;;;10.03;2.20;;;2.10;1.00;;;;;;5069450;28;20186;-75
2022/01/21 01:09:33;;;;;;;9.30;1.30;;;2.10;1.00;;;;;;5069697;28;20671;-75
2022/01/21 01:20:04;;;;;;;3.25;2.20;;;2.00;1.00;;;;;;5062694;28;20269;-75
2022/01/21 01:22:43;;;;;;;4.82;2.47;;;2.00;1.00;;;;;;5063955;28;20230;-75
2022/01/21 01:27:53;;;;;;;4.30;2.45;;;2.00;1.00;;;;;;5068330;28;20186;-75
2022/01/21 01:30:21;;;;;;;4.20;1.80;;;2.00;1.00;;;;;;5068698;28;20188;-75
2022/01/21 01:32:49;;;;;;;3.05;2.00;;;1.90;1.00;;;;;;5057209;28;20245;-75
2022/01/21 01:35:18;;;;;;;6.53;2.35;;;1.90;1.00;;;;;;5062227;28;20222;-75
2022/01/21 01:38:10;;;;;;;2.47;2.05;;;1.90;1.00;;;;;;5068628;28;20645;-76
2022/01/21 01:41:13;;;;;;;3.00;1.90;;;1.90;1.00;;;;;;5065965;28;20183;-74
2022/01/21 01:51:25;;;;;;;5.38;2.17;;;1.90;1.00;;;;;;5054169;28;20249;-74
2022/01/21 01:53:54;;;;;;;4.43;1.98;;;;;;;;;;5066329;28;20190;-74
2022/01/21 01:56:24;;;;;;;7.85;2.60;;;1.90;1.00;;;;;;5055757;28;20240;-74
2022/01/21 01:58:50;;;;;;;3.08;2.10;;;1.80;1.00;;;;;;5054602;28;20616;-74
2022/01/21 02:01:17;;;;;;;11.23;3.17;;;1.80;1.00;;;;;;5058944;28;20214;-74
2022/01/21 02:03:42;;;;;;;6.13;2.80;;;1.80;1.00;;;;;;5068187;28;20202;-74
2022/01/21 02:06:08;;;;;;;3.97;2.53;;;;;;;;;;5057816;28;20222;-74
2022/01/21 02:08:34;;;;;;;2.95;2.25;;;1.80;1.00;;;;;;5054023;28;20662;-74
2022/01/21 02:11:00;;;;;;;3.33;2.73;;;1.80;1.00;;;;;;5067159;28;20240;-74
2022/01/21 02:13:29;;;;;;;9.50;2.03;;;;;;;;;;5053042;28;20233;-74
2022/01/21 02:16:10;;;;;;;10.23;2.67;;;1.80;1.00;;;;;;5056975;28;20167;-74
2022/01/21 02:21:36;;;;;;;9.68;3.50;;;1.70;1.00;;;;;;5050533;28;20194;-74
2022/01/21 02:24:05;;;;;;;5.68;3.05;;;1.70;1.00;;;;;;5068181;28;20178;-74
2022/01/21 02:26:31;;;;;;;3.28;2.60;;;1.70;1.00;;;;;;5063425;28;20171;-75
2022/01/21 02:28:59;;;;;;;5.28;3.45;;;1.70;1.00;;;;;;5059513;28;20661;-75
2022/01/21 02:31:25;;;;;;;4.22;2.80;;;1.60;1.00;;;;;;5070018;28;20187;-75
2022/01/21 02:33:51;;;;;;;5.00;3.37;;;;;;;;;;5065201;28;20228;-75
2022/01/21 02:36:16;;;;;;;6.28;3.67;;;1.60;1.00;;;;;;5060596;28;20175;-75
2022/01/21 02:38:42;;;;;;;10.30;3.03;;;1.60;1.00;;;;;;5070137;28;20186;-75
2022/01/21 02:41:08;;;;;;;5.33;3.43;;;1.50;1.00;;;;;;5069591;28;20183;-75
2022/01/21 02:43:33;;;;;;;6.77;3.00;;;1.50;1.00;;;;;;5072718;28;20536;-75
2022/01/21 02:46:04;;;;;;;13.63;3.47;;;1.50;1.00;;;;;;5059464;28;20550;-75
2022/01/21 02:48:34;;;;;;;6.57;3.50;;;1.50;1.00;;;;;;5070498;28;20197;-75
2022/01/21 02:51:00;;;;;;;10.55;3.85;;;1.40;1.00;;;;;;5065478;28;20282;-76
2022/01/21 02:53:38;;;;;;;7.13;3.07;;;1.50;1.00;;;;;;5059059;28;20202;-75
2022/01/21 02:56:05;;;;;;;4.47;3.08;;;1.60;1.00;;;;;;5059109;28;20203;-75
2022/01/21 02:58:32;;;;;;;6.88;3.33;;;1.60;1.00;;;;;;5051461;28;20182;-75
2022/01/21 03:00:59;;;;;;;10.82;3.65;;;1.60;1.00;;;;;;5069652;28;20187;-75
2022/01/21 03:03:25;;;;;;;6.45;2.97;;;1.70;1.00;;;;;;5060967;28;20191;-75
2022/01/21 03:05:50;;;;;;;8.73;3.17;;;1.70;1.00;;;;;;5070891;28;20633;-75
2022/01/21 03:08:16;;;;;;;10.43;3.13;;;1.70;1.00;;;;;;5060542;28;20191;-75
2022/01/21 03:10:42;;;;;;;5.23;3.20;;;1.90;1.00;;;;;;5054374;28;20183;-75
2022/01/21 03:13:08;;;;;;;12.60;3.63;;;1.90;1.00;;;;;;5065177;28;20417;-75
2022/01/21 03:15:33;;;;;;;15.43;3.63;;;1.90;1.00;;;;;;5067060;28;20296;-75
2022/01/21 03:17:59;;;;;;;10.13;3.90;;;1.90;1.00;;;;;;5072873;28;20625;-75
2022/01/21 03:20:24;;;;;;;12.20;4.00;;;2.00;1.00;;;;;;5064168;28;20654;-75
2022/01/21 03:22:50;;;;;;;6.40;3.27;;;2.00;1.00;;;;;;5064152;28;20175;-75
2022/01/21 03:25:16;;;;;;;11.40;3.20;;;2.10;1.00;;;;;;5061084;28;20176;-75
2022/01/21 03:27:41;;;;;;;12.47;3.63;;;2.10;1.00;;;;;;5072193;28;20174;-74
2022/01/21 03:30:09;;;;;;;11.47;3.87;;;2.20;1.00;;;;;;5062055;28;20218;-75
2022/01/21 03:32:35;;;;;;;4.53;2.10;;;2.20;1.00;;;;;;5068797;28;20179;-75
2022/01/21 03:35:01;;;;;;;3.70;2.42;;;2.30;1.00;;;;;;5063016;28;20180;-75
2022/01/21 03:37:27;;;;;;;4.63;3.27;;;2.40;1.00;;;;;;5072060;28;20675;-75
2022/01/21 03:39:54;;;;;;;10.87;3.80;;;2.40;1.00;;;;;;5064235;28;20696;-74
2022/01/21 03:42:19;;;;;;;6.57;1.60;;;2.40;1.00;;;;;;5072328;28;20446;-75
2022/01/21 03:44:45;;;;;;;6.83;3.50;;;2.40;1.00;;;;;;5060596;28;20179;-75
2022/01/21 03:47:11;;;;;;;3.03;2.37;;;;;;;;;;5075445;28;20179;-75
2022/01/21 03:49:39;;;;;;;5.40;2.83;;;2.30;1.00;;;;;;5053511;28;20203;-75
2022/01/21 03:52:07;;;;;;;6.97;2.88;;;2.30;1.00;;;;;;5075134;28;20409;-75
2022/01/21 03:54:35;;;;;;;4.57;3.03;;;2.30;1.00;;;;;;5061588;28;20180;-75
2022/01/21 03:57:02;;;;;;;6.40;3.60;;;2.30;1.00;;;;;;5069607;28;20203;-75
2022/01/21 03:59:27;;;;;;;7.78;3.53;;;2.20;1.00;;;;;;5074931;28;20230;-75
2022/01/21 04:01:53;;;;;;;5.57;3.20;;;2.30;1.00;;;;;;5075258;28;20230;-75
2022/01/21 04:04:19;;;;;;;6.93;3.97;;;2.30;1.00;;;;;;5061265;28;20176;-75
2022/01/21 04:06:45;;;;;;;5.37;3.43;;;;;;;;;;5070656;28;20265;-75
2022/01/21 04:09:11;;;;;;;7.40;3.23;;;2.30;1.00;;;;;;5057269;28;20199;-75
2022/01/21 04:11:37;;;;;;;6.32;3.10;;;2.30;1.00;;;;;;5091166;28;20417;-75
2022/01/21 04:14:03;;;;;;;6.87;3.60;;;2.40;1.00;;;;;;5061199;28;20258;-75
2022/01/21 04:16:29;;;;;;;3.53;2.90;;;2.50;1.00;;;;;;5073938;28;20183;-75
2022/01/21 04:18:54;;;;;;;14.00;3.30;;;2.50;1.00;;;;;;5073048;28;20425;-75
2022/01/21 04:21:21;;;;;;;13.13;3.70;;;2.50;1.00;;;;;;5066935;28;20180;-75
2022/01/21 04:23:47;;;;;;;7.93;3.65;;;2.50;1.00;;;;;;5062159;28;20266;-75
2022/01/21 04:26:12;;;;;;;10.43;3.27;;;2.50;1.00;;;;;;5071575;28;20681;-74
2022/01/21 04:28:38;;;;;;;3.87;3.07;;;2.50;1.00;;;;;;5074689;28;20194;-74
2022/01/21 04:31:04;;;;;;;3.93;2.47;;;2.50;1.00;;;;;;5072364;28;20167;-74
2022/01/21 04:33:29;;;;;;;7.50;3.70;;;2.50;1.00;;;;;;5071134;28;20282;-74
2022/01/21 04:35:55;;;;;;;9.53;3.60;;;2.50;1.00;;;;;;5081017;28;20259;-74
2022/01/21 04:38:23;;;;;;;3.20;2.90;;;2.50;1.00;;;;;;5066467;28;20190;-74
2022/01/21 04:41:00;;;;;;;6.35;3.30;;;2.50;1.00;;;;;;5062809;28;20206;-75
2022/01/21 04:48:54;;;;;;;8.55;3.42;;;2.60;1.00;;;;;;5074336;28;20676;-75
2022/01/21 04:51:26;;;;;;;7.60;3.53;;;2.60;1.00;;;;;;5059504;28;20203;-75
2022/01/21 04:53:51;;;;;;;4.68;3.00;;;2.50;1.00;;;;;;5071440;28;20254;-75
2022/01/21 04:56:17;;;;;;;6.90;3.77;;;2.50;1.00;;;;;;5060967;28;20669;-74
2022/01/21 04:58:44;;;;;;;6.17;3.30;;;2.50;1.00;;;;;;5072665;28;20511;-74
2022/01/21 05:01:11;;;;;;;6.65;3.08;;;2.40;1.00;;;;;;5070151;28;20673;-74
2022/01/21 05:03:39;;;;;;;7.40;3.53;;;2.40;1.00;;;;;;5065934;28;20632;-74
2022/01/21 05:06:05;;;;;;;7.07;3.70;;;2.20;1.00;;;;;;5070284;28;20429;-74
2022/01/21 05:08:45;;;;;;;4.72;3.70;;;2.20;1.00;;;;;;5060040;28;20563;-74
2022/01/21 05:11:13;;;;;;;11.65;3.90;;;2.20;1.00;;;;;;5072730;28;20166;-75
2022/01/21 05:13:43;;;;;;;10.88;4.63;;;2.10;1.00;;;;;;5065736;28;20210;-75
2022/01/21 05:18:58;;;;;;;7.65;3.78;;;2.10;1.00;;;;;;5059221;28;20183;-75
2022/01/21 05:21:24;;;;;;;10.43;4.47;;;2.00;1.00;;;;;;5073726;28;20179;-75
2022/01/21 05:23:49;;;;;;;13.00;4.23;;;2.00;1.00;;;;;;5073060;28;20266;-75
2022/01/21 05:26:15;;;;;;;7.90;3.97;;;2.00;1.00;;;;;;5061839;28;20257;-74
2022/01/21 05:28:41;;;;;;;5.90;3.30;;;2.00;1.00;;;;;;5065310;28;20244;-74
2022/01/21 05:31:07;;;;;;;8.27;3.77;;;2.00;1.00;;;;;;5061771;28;20938;-74
2022/01/21 05:33:32;;;;;;;7.43;4.10;;;1.90;1.00;;;;;;5058341;28;20174;-75
2022/01/21 05:35:58;;;;;;;9.30;4.30;;;1.80;1.00;;;;;;5053182;28;20164;-75
2022/01/21 05:38:24;;;;;;;5.90;3.70;;;1.80;1.00;;;;;;5051645;28;20188;-74
2022/01/21 05:40:50;;;;;;;5.47;3.70;;;1.80;1.00;;;;;;5060517;28;20171;-74
2022/01/21 05:43:16;;;;;;;9.02;4.05;;;1.90;1.00;;;;;;5053562;28;20278;-75
2022/01/21 05:48:26;;;;;;;8.70;3.95;;;1.90;1.00;;;;;;5053075;28;20225;-75
2022/01/21 05:50:52;;;;;;;5.63;3.40;;;1.90;1.00;;;;;;5052805;28;20168;-75
2022/01/21 05:53:17;;;;;;;6.33;4.10;;;2.00;1.00;;;;;;5056257;28;20421;-75
2022/01/21 05:55:43;;;;;;;8.27;3.70;;;1.90;1.00;;;;;;5055590;28;20245;-75
2022/01/21 05:58:11;;;;;;;4.13;3.60;;;1.90;1.00;;;;;;5061934;28;20171;-74
2022/01/21 06:00:37;;;;;;;6.93;3.75;;;1.80;1.00;;;;;;5073012;28;20183;-74
2022/01/21 06:03:04;;;;;;;6.22;3.63;;;1.80;1.00;;;;;;5055470;28;20259;-74
2022/01/21 06:05:32;;;;;;;8.50;4.38;;;1.80;1.00;;;;;;5058866;28;20172;-74
2022/01/21 06:07:59;;;;;;;9.43;4.65;;;;;;;;;;5053866;28;20334;-74
2022/01/21 06:10:25;;;;;;;5.63;4.10;;;1.90;1.00;;;;;;5058403;28;20172;-75
2022/01/21 06:12:51;;;;;;;7.83;3.97;;;1.90;1.00;;;;;;5060840;28;20185;-74
2022/01/21 06:15:16;;;;;;;8.60;3.97;;;1.90;1.00;;;;;;5072841;28;20412;-75
2022/01/21 06:17:42;;;;;;;8.27;4.00;;;1.90;1.00;;;;;;5055740;28;20484;-75
2022/01/21 06:20:08;;;;;;;9.00;4.73;;;2.00;1.00;;;;;;5065487;28;20182;-75
2022/01/21 06:22:34;;;;;;;9.40;4.65;;;2.10;1.00;;;;;;5057404;28;20579;-75
2022/01/21 06:24:59;;;;;;;9.67;4.50;;;2.20;1.00;;;;;;5071127;28;20175;-75
2022/01/21 06:27:27;;;;;;;15.50;4.30;;;2.20;1.00;;;;;;5066621;28;20179;-75
2022/01/21 06:29:55;;;;;;;8.32;4.95;;;2.30;1.00;;;;;;5048632;28;20563;-75
2022/01/21 06:32:21;;;;;;;8.85;3.60;;;;;;;;;;5050596;28;20188;-75
2022/01/21 06:34:47;;;;;;;5.75;3.55;;;2.40;1.00;;;;;;5046997;28;20177;-75
2022/01/21 06:37:12;;;;;;;6.83;3.63;;;4.80;1.00;;;;;;5057905;28;20615;-75
2022/01/21 06:39:38;;;;;;;7.70;3.90;;;;;;;;;;5043639;28;20187;-75
2022/01/21 06:42:04;;;;;;;10.10;4.00;;;;;;;;;;5065404;28;20183;-75
2022/01/21 06:44:30;;;;;;;6.45;4.30;;;;;;;;;;5059412;28;20425;-76
2022/01/21 06:46:56;;;;;;;17.93;4.53;;;2.50;1.00;;;;;;5040159;28;20229;-75
2022/01/21 06:49:22;;;;;;;7.70;4.90;;;;;;;;;;5060873;28;20461;-75
2022/01/21 06:51:47;;;;;;;13.00;5.57;;;2.60;1.00;;;;;;5064023;28;20215;-76
2022/01/21 06:54:13;;;;;;;8.17;4.20;;;;;;;;;;5054655;28;20423;-76
2022/01/21 06:56:40;;;;;;;8.60;4.70;;;;;;;;;;5053280;28;20175;-74
2022/01/21 06:59:05;;;;;;;13.80;3.63;;;2.60;1.00;;;;;;5064469;28;20199;-74
2022/01/21 07:01:31;;;;;;;4.27;2.43;;;2.60;1.00;;;;;;5066135;28;20215;-75
2022/01/21 07:03:56;;;;;;;13.00;3.47;;;2.60;1.00;;;;;;5065158;28;20179;-75
2022/01/21 07:06:23;;;;;;;6.40;3.20;;;;;;;;;;5066428;28;20187;-75
2022/01/21 07:08:49;;;;;;;7.32;3.75;;;;;;;;;;5063712;28;20198;-75
2022/01/21 07:11:14;;;;;;;10.63;4.03;;;2.70;1.00;;;;;;5057624;28;20194;-75
2022/01/21 07:13:40;;;;;;;7.27;4.00;;;2.70;1.00;;;;;;5071619;28;20903;-76
2022/01/21 07:16:06;;;;;;;4.47;3.17;;;2.70;1.00;;;;;;5055609;28;20188;-75
2022/01/21 07:18:32;;;;;;;5.03;3.20;;;2.70;1.00;;;;;;5064191;28;20221;-75
2022/01/21 07:20:57;;;;;;;4.87;3.00;;;2.70;1.00;;;;;;5059646;28;20418;-75
2022/01/21 07:23:23;;;;;;;7.63;3.87;;;;;;;;;;5065888;28;20258;-76
2022/01/21 07:25:49;;;;;;;9.93;3.80;;;2.70;1.00;;;;;;5060216;28;20225;-76
2022/01/21 07:28:15;;;;;;;5.80;3.15;;;2.70;1.00;;;;;;5059325;28;20697;-75
2022/01/21 07:30:50;;;;;;;4.23;2.20;;;2.80;1.00;;;;;;5057789;28;20179;-75
2022/01/21 07:33:27;;;;;;;5.63;3.55;;;2.80;1.00;;;;;;5058747;28;20455;-75
2022/01/21 07:36:09;;;;;;;7.13;3.85;;;2.80;1.00;;;;;;5061242;28;20179;-75
2022/01/21 07:38:37;;;;;;;4.15;2.92;;;2.80;1.00;;;;;;5055952;28;20208;-75
2022/01/21 07:41:03;;;;;;;4.97;3.60;;;2.90;1.00;;;;;;5053910;28;20175;-75
2022/01/21 07:43:34;;;;;;;8.30;3.90;;;3.00;1.00;;;;;;5058554;28;20171;-75
2022/01/21 07:46:02;;;;;;;8.48;4.25;;;3.00;1.00;;;;;;5077908;28;20445;-75
2022/01/21 07:48:28;;;;;;;4.32;3.05;;;3.00;1.00;;;;;;5073487;28;20203;-75
2022/01/21 07:50:55;;;;;;;7.00;3.70;;;3.10;1.00;;;;;;5070189;28;20177;-75
2022/01/21 07:53:28;;;;;;;4.82;3.83;;;3.20;1.00;;;;;;5075552;28;20187;-75
2022/01/21 07:56:03;;;;;;;15.07;4.50;;;3.20;1.00;;;;;;5073222;28;20174;-76
2022/01/21 07:58:30;;;;;;;7.30;4.00;;;3.30;1.00;;;;;;5057166;28;20171;-75
2022/01/21 08:01:03;;;;;;;6.40;3.83;;;3.30;1.00;;;;;;5061051;28;20641;-75
2022/01/21 08:03:43;;;;;;;15.80;3.95;;;3.40;1.00;;;;;;5058887;28;20568;-75
2022/01/21 08:06:45;;;;;;;5.93;3.00;;;3.40;1.00;;;;;;5055463;28;20188;-75
2022/01/21 08:09:11;;;;;;;8.48;4.32;;;3.40;1.00;;;;;;5051058;28;20206;-76
2022/01/21 08:11:38;;;;;;;6.65;3.13;;;3.40;1.00;;;;;;5048612;28;20168;-75
2022/01/21 08:14:04;;;;;;;9.00;4.35;;;3.40;1.00;;;;;;5058902;28;20187;-75
2022/01/21 08:16:53;;;;;;;11.77;4.85;;;3.50;1.00;;;;;;5068264;28;20506;-75
2022/01/21 08:19:21;;;;;;;10.60;3.38;;;3.50;1.00;;;;;;5061987;28;20215;-75
2022/01/21 08:21:47;;;;;;;4.75;3.50;;;3.60;1.00;;;;;;5069890;28;20638;-75
2022/01/21 08:24:15;;;;;;;8.40;3.97;;;3.60;1.00;;;;;;5072924;28;20257;-75
2022/01/21 08:26:45;;;;;;;24.15;4.22;;;3.60;1.00;;;;;;5070044;28;20460;-75
2022/01/21 08:29:18;;;;;;;11.25;3.33;;;3.60;1.00;;;;;;5063536;28;20206;-74
2022/01/21 08:31:45;;;;;;;12.18;4.93;;;3.50;1.00;;;;;;5052703;28;20187;-75
2022/01/21 08:34:13;;;;;;;5.07;3.78;;;3.50;1.00;;;;;;5055810;28;20649;-75
2022/01/21 08:36:54;;;;;;;17.63;4.57;;;3.50;1.00;;;;;;5068827;28;20220;-75
2022/01/21 08:39:20;;;;;;;6.10;3.60;;;3.50;1.00;;;;;;5069283;28;20180;-75
2022/01/21 08:41:47;;;;;;;7.78;3.20;;;3.50;1.00;;;;;;5060124;28;20180;-75
2022/01/21 08:44:12;;;;;;;4.93;3.33;;;3.50;1.00;;;;;;5060582;28;20214;-75
2022/01/21 08:46:38;;;;;;;4.00;3.50;;;3.40;1.00;;;;;;5074754;28;20209;-75
2022/01/21 08:49:09;;;;;;;12.00;4.47;;;3.50;1.00;;;;;;5065088;28;20202;-75
2022/01/21 08:51:49;;;;;;;6.18;4.15;;;3.60;1.00;;;;;;5067530;28;20178;-75
2022/01/21 08:54:16;;;;;;;7.65;3.78;;;3.70;1.00;;;;;;5051466;28;20251;-75
2022/01/21 08:56:46;;;;;;;7.88;4.20;;;3.80;1.00;;;;;;5065104;28;20257;-75
2022/01/21 08:59:13;;;;;;;14.90;3.65;;;3.90;1.00;;;;;;5069343;28;20201;-75
2022/01/21 09:02:15;;;;;;;8.65;3.88;;;4.00;1.00;;;;;;5055773;28;20619;-75
2022/01/21 09:04:41;;;;;;;10.43;2.95;;;4.10;1.00;;;;;;5068246;28;20223;-75
2022/01/21 09:07:09;;;;;;;10.25;3.33;;;4.10;1.00;;;;;;5070431;28;20186;-76
2022/01/21 09:09:45;;;;;;;7.38;3.50;;;4.30;1.00;;;;;;5063072;28;20585;-75
2022/01/21 09:12:11;;;;;;;7.57;3.45;;;4.40;1.00;;;;;;5064145;28;20169;-75
2022/01/21 09:14:37;;;;;;;5.27;2.90;;;4.50;1.00;;;;;;5057002;28;20176;-77
2022/01/21 09:17:15;;;;;;;5.90;3.25;;;4.50;1.00;;;;;;5060857;28;20420;-75
2022/01/21 09:19:51;;;;;;;7.23;3.87;;;4.50;1.00;;;;;;5046560;28;20183;-76
2022/01/21 09:22:21;;;;;;;7.82;3.65;;;4.60;1.00;;;;;;5047293;28;20465;-75
2022/01/21 09:24:57;;;;;;;6.68;3.45;;;4.70;1.00;;;;;;5068150;28;20187;-75
2022/01/21 09:27:45;;;;;;;4.57;3.10;;;4.80;1.00;;;;;;5068232;28;20175;-75
2022/01/21 09:30:21;;;;;;;4.20;3.20;;;4.60;1.00;;;;;;5062417;28;20880;-75
2022/01/21 09:32:51;;;;;;;6.05;2.30;;;4.60;1.00;;;;;;5061057;28;20428;-75
2022/01/21 09:35:21;;;;;;;7.73;3.80;;;4.70;1.00;;;;;;5063333;28;20529;-75
2022/01/21 09:37:51;;;;;;;6.87;3.80;;;4.80;1.00;;;;;;5058876;28;20458;-75
2022/01/21 09:40:30;;;;;;;16.70;4.87;;;4.80;1.00;;;;;;5059067;28;20936;-75
2022/01/21 09:43:10;;;;;;;5.33;4.07;;;4.80;1.00;;;;;;5070767;28;20416;-76
2022/01/21 09:45:54;;;;;;;3.63;2.70;;;4.90;1.00;;;;;;5059371;28;20417;-75
2022/01/21 09:48:30;;;;;;;7.83;3.13;;;5.00;1.00;;;;;;5064082;28;20413;-74
2022/01/21 09:50:59;;;;;;;12.60;3.57;;;5.00;1.00;;;;;;5056840;28;20429;-75
2022/01/21 09:53:31;;;;;;;12.17;3.60;;;5.00;1.00;;;;;;5072990;28;20418;-75
2022/01/21 09:56:05;;;;;;;7.63;4.20;;;5.00;1.00;;;;;;5058749;28;20546;-75
2022/01/21 09:58:43;;;;;;;10.37;3.53;;;5.10;1.00;;;;;;5068408;28;20756;-75
2022/01/21 10:01:09;;;;;;;5.73;2.17;;;5.10;1.00;;;;;;5056878;28;21037;-75
2022/01/21 10:03:42;;;;;;;5.93;4.00;;;5.20;1.00;;;;;;5060459;28;20414;-75
2022/01/21 10:06:10;;;;;;;13.10;3.47;;;5.10;1.00;;;;;;5067033;28;20410;-76
2022/01/21 10:08:41;;;;;;;7.87;3.67;;;5.10;1.00;;;;;;5057669;28;20454;-75
2022/01/21 10:11:09;;;;;;;7.97;3.23;;;5.30;1.00;;;;;;5052988;28;20398;-75
2022/01/21 10:13:36;;;;;;;13.07;3.92;;;5.30;1.00;;;;;;5057961;28;20406;-75
2022/01/21 10:16:04;;;;;;;5.80;3.47;;;5.20;1.00;;;;;;5061826;28;20229;-75
2022/01/21 10:18:33;;;;;;;7.10;3.97;;;6.40;1.00;;;;;;5053558;28;20496;-78
2022/01/21 10:21:16;;;;;;;12.87;3.90;;;5.20;1.00;;;;;;5057329;28;20509;-75
2022/01/21 10:23:51;;;;;;;9.40;4.10;;;5.20;1.00;;;;;;5060879;28;20462;-75
2022/01/21 10:26:23;;;;;;;6.03;3.87;;;5.10;1.00;;;;;;5055447;28;20425;-76
2022/01/21 10:28:57;;;;;;;4.70;3.50;;;5.20;1.00;;;;;;5063541;28;20536;-75
2022/01/21 10:31:57;;;;;;;2.67;2.27;;;5.30;1.00;;;;;;5057719;28;20436;-75
2022/01/21 10:34:35;;;;;;;3.33;3.00;;;5.30;1.00;;;;;;5053618;28;20529;-77
2022/01/21 10:37:36;;;;;;;4.83;2.73;;;;;;;;;;5063350;28;20405;-77
2022/01/21 10:40:17;;;;;;;7.00;2.40;;;5.00;1.00;;;;;;4996827;28;20815;-76
2022/01/21 10:43:12;;;;;;;4.83;2.73;;;4.90;1.00;;;;;;5011000;28;20423;-77
2022/01/21 10:46:08;;;;;;;10.30;2.67;;;5.00;1.00;;;;;;5011156;28;20474;-74
2022/01/21 10:49:14;;;;;;;4.33;2.60;;;5.10;1.00;;;;;;4935449;29;20481;-77
2022/01/21 10:52:00;;;;;;;8.50;3.40;;;5.20;1.00;;;;;;4928007;29;20448;-75
2022/01/21 10:54:33;;;;;;;6.73;2.57;;;5.20;1.00;;;;;;4933709;29;20447;-76
2022/01/21 10:57:13;;;;;;;7.43;2.93;;;5.20;1.00;;;;;;4937143;29;20442;-75
2022/01/21 11:00:01;;;;;;;8.20;3.33;;;5.20;1.00;;;;;;4932793;29;20452;-76
2022/01/21 11:02:33;;;;;;;4.30;3.40;;;5.40;1.00;;;;;;4923791;29;20454;-75
2022/01/21 11:05:03;;;;;;;4.73;3.03;;;5.40;1.00;;;;;;4929903;29;20516;-74
2022/01/21 11:07:45;;;;;;;3.67;2.80;;;5.50;1.00;;;;;;4926714;29;20847;-74
2022/01/21 11:10:32;;;;;;;4.17;2.70;;;5.70;1.00;;;;;;4925934;29;20547;-75
2022/01/21 11:13:02;;;;;;;3.33;2.70;;;5.70;1.00;;;;;;4930725;29;20465;-74
2022/01/21 11:15:39;;;;;;;10.87;3.23;;;5.70;1.00;;;;;;4962203;28;20931;-75
2022/01/21 11:18:18;;;;;;;6.23;2.87;;;5.90;1.00;;;;;;4979923;28;20429;-76
2022/01/21 11:20:49;;;;;;;3.93;2.83;;;5.90;1.00;;;;;;4986198;28;20420;-76
2022/01/21 11:23:17;;;;;;;7.57;3.67;;;6.00;1.00;;;;;;4981433;28;20754;-76
2022/01/21 11:25:43;;;;;;;5.37;3.07;;;6.00;1.00;;;;;;5042707;28;20421;-76
2022/01/21 11:28:16;;;;;;;5.83;3.40;;;6.10;1.00;;;;;;5066494;28;20505;-80
2022/01/21 11:30:46;;;;;;;4.60;2.87;;;6.10;1.00;;;;;;5074723;28;20484;-76
2022/01/21 11:33:12;;;;;;;4.10;2.50;;;6.10;1.00;;;;;;5077217;28;20397;-75
2022/01/21 11:35:38;;;;;;;9.30;2.60;;;6.00;1.00;;;;;;5061833;28;20948;-75
2022/01/21 11:38:09;;;;;;;10.40;3.10;;;5.90;1.00;;;;;;5061253;28;20494;-75
2022/01/21 11:40:47;;;;;;;4.80;3.03;;;5.90;1.00;;;;;;5068790;28;20441;-75
2022/01/21 11:43:14;;;;;;;1.87;1.67;;;5.90;1.00;;;;;;5052550;28;20410;-75
2022/01/21 11:51:21;;;;;;;3.07;1.90;;;6.00;1.00;;;;;;5065913;28;20508;-75
2022/01/21 11:53:52;;;;;;;7.37;3.10;;;6.10;1.00;;;;;;5055807;28;20402;-74
2022/01/21 11:56:42;;;;;;;8.60;3.43;;;6.10;1.00;;;;;;5059587;28;20935;-75
2022/01/21 11:59:36;;;;;;;6.13;2.93;;;6.40;1.00;;;;;;5075331;28;20413;-74
2022/01/21 12:02:15;;;;;;;4.80;2.60;;;6.60;1.00;;;;;;5047403;28;20568;-76
2022/01/21 12:04:44;;;;;;;4.83;2.87;;;6.80;1.00;;;;;;5055812;28;20403;-76
2022/01/21 12:07:35;;;;;;;8.53;3.13;;;6.90;1.00;;;;;;5055878;28;20417;-76
2022/01/21 12:10:10;;;;;;;5.03;2.80;;;6.90;1.00;;;;;;5049589;28;21018;-75
2022/01/21 12:12:54;;;;;;;4.20;2.60;;;6.90;1.00;;;;;;5069406;28;20431;-76
2022/01/21 12:15:41;;;;;;;6.40;2.80;;;7.00;1.00;;;;;;5069576;28;20481;-76
2022/01/21 12:18:33;;;;;;;6.17;2.73;;;7.10;1.00;;;;;;5058003;28;20426;-74
2022/01/21 12:21:22;;;;;;;5.00;2.77;;;7.00;1.00;;;;;;5063941;28;20904;-74
2022/01/21 12:23:48;;;;;;;10.73;3.20;;;7.20;1.00;;;;;;5059297;28;20905;-74
2022/01/21 12:26:23;;;;;;;4.83;2.50;;;7.00;1.00;;;;;;5057081;28;20414;-73
2022/01/21 12:28:58;;;;;;;5.57;3.23;;;7.10;1.00;;;;;;5068527;28;20227;-75
2022/01/21 12:32:12;;;;;;;18.23;3.20;;;6.90;1.00;;;;;;5048959;28;20819;-74
2022/01/21 12:35:07;;;;;;;6.83;2.60;;;6.80;1.00;;;;;;4986680;28;20511;-80
2022/01/21 12:37:53;;;;;;;2.83;2.23;;;6.60;1.00;;;;;;4993936;28;20472;-77
2022/01/21 12:41:08;;;;;;;3.37;2.50;;;6.70;1.00;;;;;;4991851;28;20411;-77
2022/01/21 12:43:38;;;;;;;2.63;2.30;;;6.70;1.00;;;;;;4974486;28;20422;-77
2022/01/21 12:46:34;;;;;;;4.67;2.40;;;6.80;1.00;;;;;;5006250;28;20967;-77
2022/01/21 12:49:39;;;;;;;8.07;2.07;;;6.80;1.00;;;;;;5010462;28;20542;-76
2022/01/21 12:52:13;;;;;;;2.87;2.40;;;6.90;1.00;;;;;;4957177;28;20434;-75
2022/01/21 12:57:34;;;;;;;3.90;2.30;;;6.70;1.00;;;;;;4948821;28;20824;-75
2022/01/21 13:00:08;;;;;;;4.73;2.53;;;6.70;1.00;;;;;;4965333;28;20474;-75
2022/01/21 13:02:34;;;;;;;2.90;2.70;;;6.60;1.00;;;;;;4965375;28;20461;-74
2022/01/21 13:05:09;;;;;;;7.13;3.00;;;6.60;1.00;;;;;;4954783;29;20422;-75
2022/01/21 13:07:55;;;;;;;20.03;2.47;;;6.60;1.00;;;;;;4955906;28;20426;-75
2022/01/21 13:10:23;;;;;;;6.73;2.77;;;6.60;1.00;;;;;;4977730;28;20479;-75
2022/01/21 13:13:14;;;;;;;1.87;1.70;;;6.60;1.00;;;;;;5015885;28;20424;-75
2022/01/21 13:15:56;;;;;;;8.73;2.60;;;6.60;1.00;;;;;;5029739;28;20849;-76
2022/01/21 13:18:31;;;;;;;1.70;1.40;;;6.60;1.00;;;;;;5032760;28;20633;-75
2022/01/21 13:21:05;;;;;;;4.53;2.33;;;6.50;1.00;;;;;;5032202;28;20808;-75
2022/01/21 13:23:53;;;;;;;3.80;2.30;;;6.50;1.00;;;;;;5030341;28;20413;-75
2022/01/21 13:26:25;;;;;;;7.87;2.03;;;6.40;1.00;;;;;;5039712;28;20409;-75
2022/01/21 13:29:00;;;;;;;1.73;1.60;;;6.40;1.00;;;;;;5054273;28;20454;-75
2022/01/21 13:31:41;;;;;;;8.40;2.70;;;6.40;1.00;;;;;;5051752;28;20413;-75
2022/01/21 13:34:15;;;;;;;3.80;2.17;;;6.40;1.00;;;;;;5050215;28;20419;-75
2022/01/21 13:36:52;;;;;;;2.40;2.17;;;6.30;1.00;;;;;;5048631;28;20429;-76
2022/01/21 13:39:31;;;;;;;2.80;1.87;;;6.20;1.00;;;;;;5053311;28;20441;-75
2022/01/21 13:42:09;;;;;;;4.90;1.43;;;6.20;1.00;;;;;;5053856;28;20409;-75
2022/01/21 13:44:42;;;;;;;1.67;1.57;;;6.20;1.00;;;;;;5067131;28;20429;-75
2022/01/21 13:47:32;;;;;;;6.33;1.80;;;6.20;1.00;;;;;;5041555;28;20402;-75
2022/01/21 13:50:08;;;;;;;3.80;2.17;;;6.20;1.00;;;;;;5073876;28;20514;-75
2022/01/21 13:52:52;;;;;;;1.23;1.23;;;6.10;1.00;;;;;;5062165;28;20750;-75
2022/01/21 13:55:34;;;;;;;1.37;1.27;;;6.20;1.00;;;;;;5049966;28;20413;-75
2022/01/21 13:58:17;;;;;;;3.77;2.30;;;6.10;1.00;;;;;;5067635;28;20412;-76
2022/01/21 14:00:46;;;;;;;5.27;2.50;;;6.10;1.00;;;;;;5053866;28;20457;-76
2022/01/21 14:03:17;;;;;;;2.20;2.00;;;6.20;1.00;;;;;;5058581;28;20421;-75
2022/01/21 14:05:55;;;;;;;5.03;2.70;;;6.20;1.00;;;;;;5039753;28;20437;-74
2022/01/21 14:08:31;;;;;;;2.27;2.07;;;6.20;1.00;;;;;;5055252;28;20432;-74
2022/01/21 14:11:07;;;;;;;3.70;2.40;;;6.20;1.00;;;;;;5059899;28;20474;-74
2022/01/21 14:13:44;;;;;;;4.00;1.97;;;6.10;1.00;;;;;;5053077;28;20935;-75
2022/01/21 14:16:53;;;;;;;3.47;2.20;;;6.30;1.00;;;;;;5051171;28;20440;-75
2022/01/21 14:19:39;;;;;;;3.43;2.90;;;6.30;1.00;;;;;;5043722;28;20435;-75
2022/01/21 14:22:09;;;;;;;2.00;1.90;;;6.30;1.00;;;;;;5063793;28;20434;-76
2022/01/21 14:24:56;;;;;;;9.03;3.10;;;6.30;1.00;;;;;;5056170;28;20460;-79
2022/01/21 14:27:29;;;;;;;3.00;2.40;;;6.20;1.00;;;;;;5054396;28;20422;-75